Anthony, Texas
Current Conditions -  °F | °C
As of 3:58 AM on Wednesday 22 Oct 2014 (Local Time) from KBIF Reporting Station
Overcast Overcast  
Wind Chill: 58°   Ceiling: 2000
Heat Index: 58°   Visibility: 9mi
Dew Point: 56°   Wind: 5mph
Humidity: 93%   Direction: 10°N
Pressure: 30.07"   Gusts: NA
Location:  32°N, 106.61°W
Report Text: KBIF 220958Z AUTO 01004KT 9SM OVC020 15/13 A3007 RMK AO2 SLP133 T01460134 $
Loading
Personal Weather Stations






























Interactive Weather Map New forecast layout! Learn more

10-Day Weather Forecast

Advertisements
Track Severe Weather on mobile